Aeroporto :
LOGIN :

Iscrizione | Disclaimer

   EN    FR    IT 

 










Sommario :    VFR   VFR Marginale   IFR   IFR Intensivo   IFR Molto Intensivo
Visibilità : 
Base nubi : 
>= 8 km
>= 3000ft
5 / 8 km
1000 / 3000 ft
1500m / 5 km
500 / 1000 ft
800 / 1500m
200 / 500 ft
< 800m
< 200 ft
Simboli :   Temporali  Nebbia  Neve Forte  Precipitazioni Forti  Vento > 20 kt
SIGMETs :   Varie  Temporali  Ghiacco  Turbolenza  Onda orograficha  Ceneri Vulcaniche






- Altitudine del aeroporto : 821 ft
- Codice IATA : LYS


LFLL - Lyon St Exupéry / Satolas

ULTIMO METAR :
  • 092300Z AUTO 21005KT CAVOK 14/04 Q1021 NOSIG

METARs OBSOLETI :
  • 092230Z AUTO 21004KT CAVOK 15/04 Q1021 NOSIG
  • 092200Z AUTO 24003KT 9999 FEW001 16/04 Q1021 NOSIG
  • 092130Z AUTO 25003KT CAVOK 16/04 Q1021 NOSIG
  • 092100Z AUTO 26002KT CAVOK 16/04 Q1021 NOSIG
  • 092030Z AUTO 28003KT CAVOK 17/04 Q1021 NOSIG

TAF TAF LFLL
Valido dal 09 a 18 ore il 11 a 00 ore UTC


091700Z 0918/1024 VRB03KT CAVOK
TEMPO 0918/0921 02008KT
TEMPO 1000/1012 18005KT
BECMG 1020/1022 20008KT



MetMap, La meteo Aeronautica in un colpo d'occhio ! - Copyright ORBIFLY Dicembre 2007 - Disclaimer

ORBIFLY MET'MAP TEAM :

Programmazione e sviluppo : Alexandra Zaïnal
Concezione : Baudouin d'Aumeries
Aiuto per la programmazione : Marc-Olivier Méhu
Supporto tecnico e logistico : Manuel Goepfert
Aiuto per la traduzione : Arnaldo La Scala

Contatto : metmap@orbifly.com




FONTI E CREDITI :

   NOAA